createdAt,value
2023-03-20T00:02:05.138Z,8.36
2023-03-20T00:04:36.016Z,7.82
2023-03-20T00:07:10.703Z,7.39
2023-03-20T00:09:41.332Z,7.92
2023-03-20T00:12:15.235Z,9.45
2023-03-20T00:14:46.497Z,9.32
2023-03-20T00:17:20.570Z,8.47
2023-03-20T00:19:51.760Z,7.86
2023-03-20T00:22:22.753Z,7.43
2023-03-20T00:24:54.750Z,7.11
2023-03-20T00:27:25.808Z,7.10
2023-03-20T00:29:57.446Z,8.35
2023-03-20T00:32:28.281Z,9.67
2023-03-20T00:35:01.327Z,10.59
2023-03-20T00:37:32.213Z,10.96
2023-03-20T00:40:02.826Z,10.15
2023-03-20T00:42:33.733Z,9.26
2023-03-20T00:45:05.540Z,8.61
2023-03-20T00:47:41.049Z,8.14
2023-03-20T00:50:18.006Z,7.74
2023-03-20T00:52:49.056Z,7.40
2023-03-20T00:55:20.247Z,7.12
2023-03-20T00:57:53.627Z,6.95
2023-03-20T01:00:36.993Z,7.88
2023-03-20T01:03:13.320Z,9.26
2023-03-20T01:05:44.258Z,10.21
2023-03-20T01:08:16.690Z,10.67
2023-03-20T01:10:48.177Z,9.88
2023-03-20T01:13:23.446Z,8.97
2023-03-20T01:15:54.776Z,8.30
2023-03-20T01:18:26.701Z,7.85
2023-03-20T01:20:57.361Z,7.49
2023-03-20T01:23:28.291Z,7.18
2023-03-20T01:25:59.641Z,6.90
2023-03-20T01:28:31.468Z,6.93
2023-03-20T01:31:02.236Z,8.16
2023-03-20T01:33:34.615Z,9.45
2023-03-20T01:36:05.423Z,10.37
2023-03-20T01:38:36.520Z,10.45
2023-03-20T01:41:08.144Z,9.56
2023-03-20T01:43:40.766Z,8.59
2023-03-20T01:46:19.786Z,7.88
2023-03-20T01:48:59.502Z,7.30
2023-03-20T01:51:33.084Z,6.89
2023-03-20T01:54:08.908Z,7.74
2023-03-20T01:56:43.057Z,9.18
2023-03-20T01:59:16.022Z,9.69
2023-03-20T02:01:47.593Z,9.09
2023-03-20T02:04:18.589Z,8.07
2023-03-20T02:06:55.415Z,7.34
2023-03-20T02:09:41.913Z,6.84
2023-03-20T02:12:17.151Z,6.80
2023-03-20T02:14:48.803Z,7.94
2023-03-20T02:17:33.570Z,9.25
2023-03-20T02:20:15.971Z,9.61
2023-03-20T02:22:57.239Z,8.69
2023-03-20T02:25:44.745Z,7.79
2023-03-20T02:28:39.596Z,7.68
2023-03-20T02:31:29.865Z,9.27
2023-03-20T02:34:15.072Z,10.25
2023-03-20T02:36:56.116Z,9.76
2023-03-20T02:39:40.490Z,8.72
2023-03-20T02:42:15.660Z,7.93
2023-03-20T02:44:48.996Z,8.56
2023-03-20T02:47:22.820Z,9.67
2023-03-20T02:49:57.741Z,10.09
2023-03-20T02:52:35.054Z,9.09
2023-03-20T02:55:12.424Z,8.14
2023-03-20T02:57:45.915Z,7.58
2023-03-20T03:00:18.077Z,8.32
2023-03-20T03:02:53.255Z,9.51
2023-03-20T03:05:25.349Z,10.11
2023-03-20T03:07:59.898Z,9.79
2023-03-20T03:10:33.264Z,8.83
2023-03-20T03:13:06.601Z,7.97
2023-03-20T03:15:38.766Z,7.35
2023-03-20T03:18:13.072Z,6.93
2023-03-20T03:20:44.935Z,6.90
2023-03-20T03:23:26.676Z,8.14
2023-03-20T03:25:59.096Z,9.58
2023-03-20T03:28:37.182Z,10.39
2023-03-20T03:31:09.331Z,9.66
2023-03-20T03:33:41.080Z,8.51
2023-03-20T03:36:14.386Z,7.81
2023-03-20T03:38:48.200Z,8.82
2023-03-20T03:41:22.295Z,9.82
2023-03-20T03:43:55.422Z,10.06
2023-03-20T03:46:27.627Z,9.23
2023-03-20T03:48:58.979Z,8.23
2023-03-20T03:51:32.346Z,7.57
2023-03-20T03:54:11.059Z,7.44
2023-03-20T03:56:43.429Z,8.80
2023-03-20T03:59:19.268Z,9.99
2023-03-20T04:01:52.044Z,9.85
2023-03-20T04:04:23.468Z,8.79
2023-03-20T04:06:54.343Z,7.93
2023-03-20T04:09:25.284Z,7.54
2023-03-20T04:11:56.636Z,8.76
2023-03-20T04:14:27.488Z,9.97
2023-03-20T04:16:58.304Z,10.36
2023-03-20T04:19:29.346Z,9.39
2023-03-20T04:21:59.923Z,8.28
2023-03-20T04:24:30.915Z,7.70
2023-03-20T04:27:01.767Z,8.55
2023-03-20T04:29:33.307Z,9.71
2023-03-20T04:32:13.907Z,10.39
2023-03-20T04:35:03.371Z,10.53
2023-03-20T04:37:59.779Z,9.18
2023-03-20T04:40:31.840Z,8.20
2023-03-20T04:43:02.706Z,7.64
2023-03-20T04:45:33.754Z,8.59
2023-03-20T04:48:04.657Z,9.67
2023-03-20T04:50:36.110Z,10.39
2023-03-20T04:53:07.044Z,10.09
2023-03-20T04:55:38.098Z,8.83
2023-03-20T04:58:09.122Z,7.85
2023-03-20T05:00:40.525Z,7.25
2023-03-20T05:03:11.201Z,7.08
2023-03-20T05:05:43.876Z,8.26
2023-03-20T05:08:14.921Z,9.58
2023-03-20T05:10:47.496Z,10.07
2023-03-20T05:13:36.665Z,8.89
2023-03-20T05:16:23.905Z,7.87
2023-03-20T05:19:15.200Z,7.56
2023-03-20T05:22:01.545Z,9.02
2023-03-20T05:24:53.842Z,10.06
2023-03-20T05:27:53.749Z,8.82
2023-03-20T05:30:47.655Z,7.88
2023-03-20T05:33:50.919Z,9.15
2023-03-20T05:36:40.266Z,9.86
2023-03-20T05:39:29.456Z,8.65
2023-03-20T05:42:19.137Z,7.62
2023-03-20T05:45:10.052Z,7.63
2023-03-20T05:48:18.778Z,9.34
2023-03-20T05:51:13.001Z,10.32
2023-03-20T05:54:00.463Z,9.81
2023-03-20T05:56:32.324Z,8.76
2023-03-20T05:59:23.634Z,7.89
2023-03-20T06:02:17.434Z,7.49
2023-03-20T06:04:54.094Z,8.70
2023-03-20T06:07:39.319Z,10.18
2023-03-20T06:10:14.468Z,9.98
2023-03-20T06:12:45.803Z,9.00
2023-03-20T06:15:17.203Z,8.14
2023-03-20T06:17:53.474Z,8.51
2023-03-20T06:20:24.810Z,9.83
2023-03-20T06:22:55.965Z,9.97
2023-03-20T06:25:27.091Z,9.00
2023-03-20T06:27:58.032Z,8.21
2023-03-20T06:30:28.967Z,7.81
2023-03-20T06:33:00.007Z,8.69
2023-03-20T06:35:38.579Z,10.15
2023-03-20T06:38:09.461Z,10.76
2023-03-20T06:40:40.812Z,10.06
2023-03-20T06:43:12.976Z,9.24
2023-03-20T06:45:48.765Z,8.71
2023-03-20T06:48:27.335Z,8.28
2023-03-20T06:50:58.248Z,8.44
2023-03-20T06:53:33.520Z,10.05
2023-03-20T06:56:09.536Z,10.85
2023-03-20T06:58:43.627Z,10.30
2023-03-20T07:01:17.788Z,9.81
2023-03-20T07:03:46.965Z,9.53
2023-03-20T07:06:18.917Z,9.37
2023-03-20T07:08:49.861Z,9.28
2023-03-20T07:11:21.558Z,9.18
2023-03-20T07:13:52.518Z,9.12
2023-03-20T07:16:32.655Z,9.12
2023-03-20T07:19:04.001Z,9.13
2023-03-20T07:21:38.017Z,9.14
2023-03-20T07:24:09.146Z,9.17
2023-03-20T07:26:41.456Z,9.22
2023-03-20T07:29:12.359Z,9.29
2023-03-20T07:31:44.435Z,9.38
2023-03-20T07:34:18.855Z,9.55
2023-03-20T07:36:50.084Z,9.74
2023-03-20T07:39:21.704Z,9.94
2023-03-20T07:42:02.817Z,10.10
2023-03-20T07:44:46.143Z,10.26
2023-03-20T07:47:17.035Z,10.33
2023-03-20T07:49:48.076Z,10.37
2023-03-20T07:52:18.852Z,10.41
2023-03-20T07:54:49.590Z,10.49
2023-03-20T07:57:20.932Z,10.48
2023-03-20T07:59:51.662Z,10.55
2023-03-20T08:02:22.498Z,10.58
2023-03-20T08:04:53.217Z,10.59
2023-03-20T08:31:50.270Z,10.95
2023-03-20T08:34:22.915Z,10.99
2023-03-20T08:36:55.156Z,11.13
2023-03-20T08:39:26.227Z,11.20
2023-03-20T08:41:58.910Z,11.33
2023-03-20T08:44:30.532Z,11.46
2023-03-20T08:47:01.819Z,11.59
2023-03-20T08:49:32.541Z,11.73
2023-03-20T08:52:03.482Z,11.91
2023-03-20T08:54:35.224Z,12.03
2023-03-20T08:57:05.861Z,12.13
2023-03-20T08:59:37.104Z,12.40
2023-03-20T09:02:08.325Z,12.55
2023-03-20T09:04:39.046Z,12.70
2023-03-20T09:07:09.615Z,12.81
2023-03-20T09:09:40.102Z,12.86
2023-03-20T09:12:10.781Z,12.93
2023-03-20T09:14:42.076Z,12.88
2023-03-20T09:17:13.265Z,12.86
2023-03-20T09:19:44.972Z,12.89
2023-03-20T09:22:18.302Z,12.86
2023-03-20T09:24:49.470Z,12.92
2023-03-20T09:27:20.196Z,13.00
2023-03-20T09:29:51.030Z,13.06
2023-03-20T09:32:22.043Z,13.12
2023-03-20T09:34:52.796Z,13.11
2023-03-20T09:37:23.652Z,13.08
2023-03-20T09:39:54.477Z,13.15
2023-03-20T09:42:31.936Z,13.18
2023-03-20T09:45:06.807Z,13.30
2023-03-20T09:47:41.680Z,13.30
2023-03-20T09:50:22.611Z,13.24
2023-03-20T09:52:57.679Z,13.12
2023-03-20T09:55:31.550Z,13.07
2023-03-20T09:58:04.455Z,13.14
2023-03-20T10:00:36.660Z,13.18
2023-03-20T10:03:08.351Z,13.27
2023-03-20T10:05:44.236Z,13.30
2023-03-20T10:08:17.053Z,13.37
2023-03-20T10:10:52.211Z,13.44
2023-03-20T10:13:36.094Z,13.55
2023-03-20T10:16:09.484Z,13.58
2023-03-20T10:18:41.933Z,13.68
2023-03-20T10:21:16.266Z,13.80
2023-03-20T10:23:50.461Z,13.87
2023-03-20T10:26:22.540Z,13.86
2023-03-20T10:28:56.334Z,13.89
2023-03-20T10:31:34.487Z,14.08
2023-03-20T10:34:13.980Z,14.20
2023-03-20T10:36:51.259Z,14.25
2023-03-20T10:39:25.720Z,14.33
2023-03-20T10:41:57.865Z,14.22
2023-03-20T10:44:31.161Z,14.20
2023-03-20T10:47:02.896Z,14.26
2023-03-20T10:49:37.337Z,14.36
2023-03-20T10:52:12.156Z,14.45
2023-03-20T10:54:44.349Z,14.60
2023-03-20T10:57:19.690Z,14.45
2023-03-20T10:59:51.727Z,14.35
2023-03-20T11:02:23.794Z,14.30
2023-03-20T11:04:54.564Z,14.47
2023-03-20T11:07:27.835Z,14.41
2023-03-20T11:10:12.386Z,14.36
2023-03-20T11:12:44.039Z,14.23
2023-03-20T11:15:21.766Z,14.10
2023-03-20T11:17:57.579Z,14.00
2023-03-20T11:20:33.857Z,13.86
2023-03-20T11:23:06.564Z,13.83
2023-03-20T11:25:39.546Z,13.91
2023-03-20T11:28:23.777Z,13.94
2023-03-20T11:31:04.896Z,14.28
2023-03-20T11:33:40.469Z,15.65
2023-03-20T11:36:14.534Z,15.38
2023-03-20T11:38:47.586Z,15.00
2023-03-20T11:41:24.460Z,14.73
2023-03-20T11:43:56.514Z,14.60
2023-03-20T11:46:27.491Z,14.46
2023-03-20T11:49:09.081Z,14.43
2023-03-20T11:51:40.906Z,14.43
2023-03-20T11:54:16.235Z,14.29
2023-03-20T11:56:54.435Z,14.88
2023-03-20T11:59:27.536Z,15.82
2023-03-20T12:01:59.470Z,15.60
2023-03-20T12:04:31.780Z,15.47
2023-03-20T12:07:05.060Z,15.35
2023-03-20T12:09:41.864Z,15.12
2023-03-20T12:12:19.510Z,14.99
2023-03-20T12:14:56.836Z,15.03
2023-03-20T12:17:44.091Z,15.18
2023-03-20T12:20:21.541Z,15.33
2023-03-20T12:22:54.526Z,15.48
2023-03-20T12:25:27.101Z,15.48
2023-03-20T12:28:02.595Z,15.24
2023-03-20T12:30:43.400Z,15.15
2023-03-20T12:33:18.446Z,15.12
2023-03-20T12:35:52.026Z,15.12
2023-03-20T12:38:26.381Z,15.13
2023-03-20T12:41:01.595Z,15.16
2023-03-20T12:43:37.304Z,15.28
2023-03-20T12:46:10.888Z,15.33
2023-03-20T12:48:50.202Z,15.55
2023-03-20T12:51:25.633Z,15.72
2023-03-20T12:54:01.689Z,15.76
2023-03-20T12:56:39.885Z,15.68
2023-03-20T12:59:15.855Z,15.53
2023-03-20T13:01:51.008Z,15.45
2023-03-20T13:04:26.016Z,15.46
2023-03-20T13:06:58.830Z,15.25
2023-03-20T13:09:40.485Z,15.16
2023-03-20T13:12:17.524Z,15.11
2023-03-20T13:14:49.916Z,14.95
2023-03-20T13:17:24.798Z,15.54
2023-03-20T13:20:00.826Z,17.71
2023-03-20T13:22:34.096Z,17.45
2023-03-20T13:25:10.686Z,17.21
2023-03-20T13:27:44.803Z,17.29
2023-03-20T13:30:20.459Z,17.48
2023-03-20T13:32:56.255Z,17.46
2023-03-20T13:35:34.133Z,17.25
2023-03-20T13:38:09.139Z,17.04
2023-03-20T13:40:45.413Z,17.03
2023-03-20T13:43:21.356Z,17.37
2023-03-20T13:45:53.292Z,17.52
2023-03-20T13:48:27.612Z,17.33
2023-03-20T13:51:02.172Z,17.32
2023-03-20T13:53:37.186Z,17.34
2023-03-20T13:56:12.121Z,17.11
2023-03-20T13:58:59.246Z,16.73
2023-03-20T14:01:35.666Z,16.49
2023-03-20T14:04:10.963Z,16.29
2023-03-20T14:06:50.086Z,16.03
2023-03-20T14:09:35.833Z,15.71
2023-03-20T14:12:08.086Z,15.44
2023-03-20T14:14:44.796Z,15.12
2023-03-20T14:17:17.580Z,14.94
2023-03-20T14:19:47.053Z,14.73
2023-03-20T14:22:20.077Z,14.64
2023-03-20T14:24:56.279Z,15.55
2023-03-20T14:27:45.068Z,16.97
2023-03-20T14:30:30.086Z,16.32
2023-03-20T14:33:01.931Z,15.64
2023-03-20T14:35:37.879Z,15.13
2023-03-20T14:38:14.258Z,14.78
2023-03-20T14:40:52.900Z,14.58
2023-03-20T14:43:27.414Z,14.44
2023-03-20T14:46:00.897Z,14.34
2023-03-20T14:48:33.755Z,14.27
2023-03-20T14:51:08.746Z,15.37
2023-03-20T14:53:41.471Z,16.16
2023-03-20T14:56:14.203Z,15.69
2023-03-20T14:58:54.008Z,15.28
2023-03-20T15:01:42.152Z,14.95
2023-03-20T15:04:21.365Z,14.72
2023-03-20T15:06:55.595Z,14.57
2023-03-20T15:09:28.565Z,14.58
2023-03-20T15:12:04.470Z,15.92
2023-03-20T15:14:42.662Z,16.79
2023-03-20T15:17:19.676Z,16.15
2023-03-20T15:19:50.453Z,15.64
2023-03-20T15:22:22.036Z,15.26
2023-03-20T15:24:57.107Z,14.96
2023-03-20T15:27:30.934Z,14.70
2023-03-20T15:30:02.385Z,15.12
2023-03-20T15:32:34.171Z,16.51
2023-03-20T15:35:05.601Z,16.30
2023-03-20T15:37:36.324Z,15.71
2023-03-20T15:40:13.703Z,15.24
2023-03-20T15:42:44.758Z,14.91
2023-03-20T15:45:23.002Z,14.74
2023-03-20T15:48:00.273Z,15.59
2023-03-20T15:50:34.581Z,16.81
2023-03-20T15:53:06.185Z,16.42
2023-03-20T15:55:37.472Z,15.77
2023-03-20T15:58:08.512Z,15.22
2023-03-20T16:00:40.890Z,14.83
2023-03-20T16:03:16.113Z,14.56
2023-03-20T16:05:48.282Z,15.69
2023-03-20T16:08:23.503Z,16.25
2023-03-20T16:10:58.358Z,15.62
2023-03-20T16:13:31.280Z,15.00
2023-03-20T16:16:02.503Z,14.58
2023-03-20T16:18:35.116Z,14.90
2023-03-20T16:21:07.412Z,16.34
2023-03-20T16:23:40.124Z,15.92
2023-03-20T16:26:14.327Z,15.19
2023-03-20T16:28:47.040Z,14.66
2023-03-20T16:31:18.498Z,14.64
2023-03-20T16:33:49.909Z,16.03
2023-03-20T16:36:22.901Z,16.40
2023-03-20T16:38:52.039Z,15.62
2023-03-20T16:41:28.693Z,14.98
2023-03-20T16:43:59.594Z,14.51
2023-03-20T16:46:30.378Z,14.51
2023-03-20T16:49:17.849Z,15.72
2023-03-20T16:51:49.399Z,16.69
2023-03-20T16:54:21.535Z,16.15
2023-03-20T16:56:54.900Z,15.38
2023-03-20T16:59:26.721Z,14.75
2023-03-20T17:02:00.527Z,14.37
2023-03-20T17:04:35.289Z,15.35
2023-03-20T17:07:11.455Z,16.52
2023-03-20T17:09:52.827Z,16.22
2023-03-20T17:12:24.847Z,15.36
2023-03-20T17:14:56.958Z,14.73
2023-03-20T17:17:27.809Z,14.26
2023-03-20T17:19:59.741Z,14.31
2023-03-20T17:22:30.904Z,15.65
2023-03-20T17:25:02.109Z,16.33
2023-03-20T17:27:34.787Z,15.87
2023-03-20T17:30:06.544Z,15.12
2023-03-20T17:32:37.997Z,14.84
2023-03-20T17:35:09.618Z,16.03
2023-03-20T17:37:41.917Z,16.50
2023-03-20T17:40:17.891Z,15.62
2023-03-20T17:42:49.113Z,14.81
2023-03-20T17:45:21.250Z,15.24
2023-03-20T18:07:34.418Z,15.81
2023-03-20T18:10:06.125Z,16.43
2023-03-20T18:12:37.222Z,15.45
2023-03-20T18:22:08.336Z,16.35
2023-03-20T18:24:42.822Z,15.20
2023-03-20T18:27:15.550Z,14.88
2023-03-20T18:29:46.290Z,15.77
2023-03-20T18:32:16.933Z,16.63
2023-03-20T18:34:47.660Z,16.23
2023-03-20T18:37:19.875Z,15.15
2023-03-20T18:39:52.705Z,15.56
2023-03-20T18:42:23.848Z,16.36
2023-03-20T18:44:55.212Z,16.27
2023-03-20T18:47:25.925Z,15.07
2023-03-20T18:49:56.293Z,15.37
2023-03-20T18:52:27.718Z,16.34
2023-03-20T18:54:58.335Z,16.04
2023-03-20T18:57:29.581Z,14.90
2023-03-20T19:00:00.208Z,15.03
2023-03-20T19:02:31.349Z,15.96
2023-03-20T19:05:02.042Z,16.55
2023-03-20T19:07:32.926Z,15.93
2023-03-20T19:10:03.579Z,14.94
2023-03-20T19:12:34.453Z,15.70
2023-03-20T19:15:05.740Z,16.53
2023-03-20T19:17:36.880Z,16.04
2023-03-20T19:20:08.434Z,14.85
2023-03-20T19:22:39.476Z,15.41
2023-03-20T19:25:10.995Z,16.42
2023-03-20T19:27:43.610Z,16.35
2023-03-20T19:30:17.024Z,15.02
2023-03-20T19:32:47.846Z,15.35
2023-03-20T19:38:12.069Z,16.20
2023-03-20T19:40:43.572Z,14.99
2023-03-20T19:43:15.662Z,15.46
2023-03-20T19:45:46.525Z,16.17
2023-03-20T19:48:18.027Z,16.49
2023-03-20T19:50:51.133Z,15.96
2023-03-20T19:53:25.436Z,14.40
2023-03-20T19:55:56.676Z,14.26
2023-03-20T19:58:27.635Z,15.18
2023-03-20T20:00:59.789Z,15.63
2023-03-20T20:03:34.338Z,16.01
2023-03-20T20:06:05.875Z,16.14
2023-03-20T20:08:47.976Z,16.35
2023-03-20T20:11:19.508Z,16.56
2023-03-20T20:14:05.722Z,16.21
2023-03-20T20:16:39.886Z,14.94
2023-03-20T20:19:11.939Z,15.01
2023-03-20T20:24:34.009Z,15.87
2023-03-20T20:27:17.846Z,16.10
2023-03-20T20:29:50.399Z,16.40
2023-03-20T20:32:22.272Z,16.65
2023-03-20T20:38:30.699Z,15.56
2023-03-20T20:40:36.178Z,15.02
2023-03-20T20:43:10.297Z,15.56
2023-03-20T20:45:42.145Z,15.94
2023-03-20T20:48:13.266Z,16.31
2023-03-20T20:50:47.101Z,16.73
2023-03-20T20:53:17.755Z,15.85
2023-03-20T20:55:48.638Z,14.41
2023-03-20T20:58:19.566Z,14.37
2023-03-20T21:00:55.144Z,15.28
2023-03-20T21:03:26.561Z,16.00
2023-03-20T21:05:57.736Z,16.23
2023-03-20T21:08:28.381Z,16.43
2023-03-20T21:10:59.938Z,16.58
2023-03-20T21:13:30.593Z,15.54
2023-03-20T21:16:02.535Z,15.40
2023-03-20T21:18:33.768Z,15.87
2023-03-20T21:21:08.205Z,16.22
2023-03-20T21:31:12.566Z,15.60
2023-03-20T21:33:37.424Z,16.49
2023-03-20T21:36:08.697Z,16.00
2023-03-20T21:41:31.572Z,15.37
2023-03-20T21:44:03.558Z,16.42
2023-03-20T22:01:39.283Z,15.81
2023-03-20T22:04:37.634Z,16.13
2023-03-20T22:10:14.010Z,15.69
2023-03-20T22:27:24.747Z,15.42
2023-03-20T22:30:04.690Z,15.92
2023-03-20T22:33:11.598Z,16.32
2023-03-20T22:46:44.793Z,14.60
2023-03-20T22:49:16.671Z,15.52
2023-03-20T22:52:04.627Z,15.87
2023-03-20T22:54:38.502Z,16.14
2023-03-20T22:57:09.224Z,14.67
2023-03-20T22:59:40.476Z,14.86
2023-03-20T23:02:11.632Z,15.78
2023-03-20T23:04:42.303Z,15.91
2023-03-20T23:07:13.215Z,16.10
2023-03-20T23:09:43.980Z,15.20
2023-03-20T23:12:14.823Z,14.54
2023-03-20T23:14:46.343Z,15.05
2023-03-20T23:17:17.148Z,15.35
2023-03-20T23:19:52.142Z,15.85
2023-03-20T23:22:24.850Z,15.76
2023-03-20T23:24:59.877Z,14.05
2023-03-20T23:27:33.488Z,14.00
2023-03-20T23:30:04.648Z,14.64
2023-03-20T23:32:37.512Z,15.07
2023-03-20T23:35:09.018Z,15.24
2023-03-20T23:37:39.902Z,15.54
2023-03-20T23:40:12.393Z,15.75
2023-03-20T23:42:43.006Z,15.78
2023-03-20T23:45:20.350Z,16.36
2023-03-20T23:47:51.825Z,15.06
2023-03-20T23:50:34.066Z,14.40
2023-03-20T23:53:19.954Z,15.21
2023-03-20T23:55:53.327Z,16.17
2023-03-20T23:58:24.787Z,15.44
